createdAt,value
2017-05-13T12:59:28.581Z,108
2017-05-13T12:59:38.742Z,108
2017-05-13T13:00:39.448Z,112
2017-05-13T13:02:55.539Z,104
2017-05-13T13:04:48.464Z,3812
2017-05-13T13:05:49.166Z,5776
2017-05-13T13:06:49.880Z,2348
2017-05-13T13:07:50.594Z,10616
2017-05-13T13:08:51.404Z,10640
2017-05-13T13:09:52.371Z,10152
2017-05-13T13:10:53.080Z,9856
2017-05-13T13:11:53.786Z,9692
2017-05-13T13:12:54.498Z,9708
2017-05-13T13:13:55.214Z,9684
2017-05-13T13:14:56.179Z,9844
2017-05-13T13:15:56.889Z,10004
2017-05-13T13:16:57.601Z,10140
2017-05-13T13:17:58.320Z,10176
2017-05-13T13:18:59.032Z,10128
2017-05-13T13:19:59.998Z,10496
2017-05-13T13:21:00.710Z,11252
2017-05-13T13:22:01.422Z,11936
2017-05-13T13:23:02.134Z,12532
2017-05-13T13:24:02.846Z,12780
2017-05-13T13:25:03.808Z,13056
2017-05-13T13:26:04.520Z,13420
2017-05-13T13:27:05.241Z,15084
2017-05-13T13:28:05.960Z,14380
2017-05-13T13:29:06.694Z,16960
2017-05-13T13:30:07.607Z,17312
2017-05-13T13:31:08.319Z,14660
2017-05-13T13:32:09.033Z,11976
2017-05-13T13:33:09.755Z,11740
2017-05-13T13:34:10.469Z,11688
2017-05-13T13:35:11.436Z,12212
2017-05-13T13:36:12.151Z,12172
2017-05-13T13:37:12.868Z,12256
2017-05-13T13:38:13.586Z,13256
2017-05-13T13:39:14.299Z,13688
2017-05-13T13:40:15.212Z,13956
2017-05-13T13:41:15.933Z,14772
2017-05-13T13:42:16.649Z,15520
2017-05-13T13:43:17.364Z,16256
2017-05-13T13:44:18.076Z,16736
2017-05-13T13:45:19.045Z,16800
2017-05-13T13:46:19.800Z,20736
2017-05-13T13:47:20.512Z,21184
2017-05-13T13:48:21.227Z,18624
2017-05-13T13:49:21.941Z,18912
2017-05-13T13:50:22.903Z,16608
2017-05-13T13:51:23.614Z,17952
2017-05-13T13:52:24.326Z,15416
2017-05-13T13:53:25.038Z,14892
2017-05-13T13:54:25.750Z,14460
2017-05-13T13:55:26.716Z,34368
2017-05-13T13:56:27.439Z,46112
2017-05-13T13:57:28.157Z,12824
2017-05-13T13:58:28.868Z,11100
2017-05-13T13:59:29.589Z,11996
2017-05-13T14:00:30.500Z,10852
2017-05-13T14:01:31.223Z,10324
2017-05-13T14:02:31.938Z,10484
2017-05-13T14:03:32.658Z,10616
2017-05-13T14:04:33.375Z,10584
2017-05-13T14:05:34.344Z,10536
2017-05-13T14:06:35.080Z,10568
2017-05-13T14:07:35.793Z,10896
2017-05-13T14:08:36.511Z,11200
2017-05-13T14:09:37.223Z,11636
2017-05-13T14:10:38.203Z,11408
2017-05-13T14:11:38.928Z,11764
2017-05-13T14:12:39.639Z,5256
2017-05-13T14:13:40.354Z,3856
2017-05-13T14:14:41.078Z,3456
2017-05-13T14:15:42.054Z,3164
2017-05-13T14:16:42.763Z,2716
2017-05-13T14:17:43.478Z,2396
2017-05-13T14:18:44.195Z,3328
2017-05-13T14:19:44.908Z,2576
2017-05-13T14:20:45.873Z,2104
2017-05-13T14:21:46.589Z,1896
2017-05-13T14:22:47.301Z,1748
2017-05-13T14:23:48.014Z,1744
2017-05-13T14:24:48.727Z,1700
2017-05-13T14:25:49.642Z,1668
2017-05-13T14:26:50.352Z,1604
2017-05-13T14:27:51.064Z,1440
2017-05-13T14:28:51.777Z,1344
2017-05-13T14:29:52.498Z,1304
2017-05-13T14:30:53.460Z,1252
2017-05-13T14:31:54.173Z,1200
2017-05-13T14:32:54.884Z,1192
2017-05-13T14:33:55.600Z,1216
2017-05-13T14:34:56.314Z,1312
2017-05-13T14:35:57.225Z,1476
2017-05-13T14:36:57.949Z,1640
2017-05-13T14:37:58.661Z,1908
2017-05-13T14:38:59.374Z,2292
2017-05-13T14:40:00.093Z,2656
2017-05-13T14:41:01.057Z,2832
2017-05-13T14:42:01.775Z,2892
2017-05-13T14:43:02.489Z,2956
2017-05-13T14:44:03.206Z,2984
2017-05-13T14:45:03.928Z,3020
2017-05-13T14:46:04.893Z,3156
2017-05-13T14:47:05.611Z,3408
2017-05-13T14:48:06.552Z,4028
2017-05-13T14:49:07.273Z,5008
2017-05-13T14:50:07.997Z,6488
2017-05-13T14:51:08.972Z,7056
2017-05-13T14:52:09.931Z,7308
2017-05-13T14:53:10.653Z,6708
2017-05-13T14:54:11.362Z,6392
2017-05-13T14:55:12.073Z,6064
2017-05-13T14:56:13.040Z,5800
2017-05-13T14:57:13.746Z,5672
2017-05-13T14:58:14.455Z,5712
2017-05-13T14:59:15.164Z,5788
2017-05-13T15:00:15.875Z,6360
2017-05-13T15:01:16.835Z,6776
2017-05-13T15:02:17.554Z,7128
2017-05-13T15:03:18.264Z,7592
2017-05-13T15:04:18.982Z,8348
2017-05-13T15:05:19.698Z,8776
2017-05-13T15:06:20.612Z,16320
2017-05-13T15:07:21.326Z,18976
2017-05-13T15:08:22.054Z,26624
2017-05-13T15:09:22.765Z,9560
2017-05-13T15:10:23.478Z,8576
2017-05-13T15:11:24.439Z,8352
2017-05-13T15:12:25.153Z,21344
2017-05-13T15:13:25.879Z,7784
2017-05-13T15:14:26.589Z,7524
2017-05-13T15:15:27.306Z,9552
2017-05-13T15:16:28.273Z,59776
2017-05-13T15:17:28.993Z,60864
2017-05-13T15:18:29.708Z,60672
2017-05-13T15:19:30.425Z,34048
2017-05-13T15:20:31.145Z,54720
2017-05-13T15:21:32.110Z,55872
2017-05-13T15:22:32.825Z,55904
2017-05-13T15:23:33.551Z,55360
2017-05-13T15:24:34.268Z,54400
2017-05-13T15:25:34.981Z,53312
2017-05-13T15:26:35.905Z,25408
2017-05-13T15:27:36.624Z,5632
2017-05-13T15:28:37.350Z,4120
2017-05-13T15:29:38.086Z,2980
2017-05-13T15:30:38.803Z,2508
2017-05-13T15:31:39.770Z,2280
2017-05-13T15:32:40.483Z,2120
2017-05-13T15:33:41.200Z,2092
2017-05-13T15:34:41.919Z,2116
2017-05-13T15:35:42.631Z,2164
2017-05-13T15:36:43.599Z,2212
2017-05-13T15:37:44.317Z,2260
2017-05-13T15:38:45.029Z,2308
2017-05-13T15:39:45.744Z,2356
2017-05-13T15:40:46.470Z,2380
2017-05-13T15:41:47.439Z,2320
2017-05-13T15:42:48.151Z,2248
2017-05-13T15:43:48.862Z,2192
2017-05-13T15:44:49.582Z,2140
2017-05-13T15:45:50.297Z,2132
2017-05-13T15:46:51.214Z,2212
2017-05-13T15:47:51.931Z,2392
2017-05-13T15:48:52.648Z,2612
2017-05-13T15:49:53.363Z,2752
2017-05-13T15:50:54.080Z,2672
2017-05-13T15:51:54.999Z,2524
2017-05-13T15:52:55.719Z,2312
2017-05-13T15:53:56.438Z,2228
2017-05-13T15:54:57.150Z,2248
2017-05-13T15:55:57.871Z,2332
2017-05-13T15:56:58.835Z,2416
2017-05-13T15:57:59.548Z,2476
2017-05-13T15:59:00.261Z,2528
2017-05-13T16:00:00.973Z,2520
2017-05-13T16:01:01.684Z,2436
2017-05-13T16:02:02.593Z,2316
2017-05-13T16:03:03.306Z,2224
2017-05-13T16:04:04.018Z,2188
2017-05-13T16:05:04.730Z,2128
2017-05-13T16:06:05.444Z,2040
2017-05-13T16:07:06.410Z,1952
2017-05-13T16:08:07.133Z,1872
2017-05-13T16:09:07.843Z,1816
2017-05-13T16:10:08.551Z,1768
2017-05-13T16:14:36.726Z,1124
2017-05-13T16:15:37.437Z,1568
2017-05-13T16:16:38.149Z,1548
2017-05-13T16:17:38.868Z,1540
2017-05-13T16:18:39.580Z,1532
2017-05-13T16:19:40.538Z,1524
2017-05-13T16:20:41.248Z,1528
2017-05-13T16:21:41.967Z,1556
2017-05-13T16:22:42.678Z,1572
2017-05-13T16:23:43.396Z,1612
2017-05-13T16:24:44.356Z,1656
2017-05-13T16:25:45.073Z,1716
2017-05-13T16:26:45.788Z,1796
2017-05-13T16:27:46.497Z,1900
2017-05-13T16:28:47.208Z,2056
2017-05-13T16:29:48.176Z,2280
2017-05-13T16:30:48.886Z,2636
2017-05-13T16:31:49.600Z,3084
2017-05-13T16:32:50.331Z,3756
2017-05-13T16:33:51.045Z,5256
2017-05-13T16:34:52.019Z,7156
2017-05-13T16:35:52.729Z,9872
2017-05-13T16:36:53.441Z,12424
2017-05-13T16:37:54.151Z,15392
2017-05-13T16:38:54.862Z,17728
2017-05-13T16:39:55.784Z,18464
2017-05-13T16:40:56.498Z,10168
2017-05-13T16:41:57.212Z,16832
2017-05-13T16:42:57.927Z,19456
2017-05-13T16:43:58.642Z,20096
2017-05-13T16:44:59.606Z,20000
2017-05-13T16:46:00.326Z,19648
2017-05-13T16:47:01.040Z,19200
2017-05-13T16:48:01.756Z,18688
2017-05-13T16:49:02.469Z,17920
2017-05-13T16:50:03.433Z,17024
2017-05-13T16:51:04.150Z,16192
2017-05-13T16:52:04.869Z,15584
2017-05-13T16:53:05.586Z,15232
2017-05-13T16:54:06.305Z,14944
2017-05-13T16:55:07.287Z,14848
2017-05-13T16:56:08.000Z,14912
2017-05-13T16:57:08.717Z,15040
2017-05-13T16:58:09.435Z,15104
2017-05-13T16:59:10.156Z,15072
2017-05-13T17:00:11.122Z,12516
2017-05-13T17:01:12.013Z,14336
2017-05-13T17:02:12.743Z,13952
2017-05-13T17:03:13.453Z,13568
2017-05-13T17:04:14.169Z,13096
2017-05-13T17:05:15.087Z,5680
2017-05-13T17:06:15.806Z,10792
2017-05-13T17:07:16.528Z,3620
2017-05-13T17:08:17.242Z,3612
2017-05-13T17:09:17.968Z,7276
2017-05-13T17:10:18.936Z,5596
2017-05-13T17:11:19.657Z,5996
2017-05-13T17:12:20.375Z,3516
2017-05-13T17:13:21.091Z,3784
2017-05-13T17:14:21.825Z,4092
2017-05-13T17:15:22.803Z,4168
2017-05-13T17:16:23.523Z,4288
2017-05-13T17:17:24.247Z,4800
2017-05-13T17:18:24.968Z,3004
2017-05-13T17:19:25.683Z,2792
2017-05-13T17:20:26.647Z,2712
2017-05-13T17:21:27.365Z,2972
2017-05-13T17:22:28.079Z,3008
2017-05-13T17:23:28.795Z,2768
2017-05-13T17:24:29.508Z,2684
2017-05-13T17:25:30.424Z,2568
2017-05-13T17:26:31.137Z,2460
2017-05-13T17:27:31.860Z,2436
2017-05-13T17:28:32.587Z,2352
2017-05-13T17:29:33.300Z,2252
2017-05-13T17:30:34.210Z,2152
2017-05-13T17:31:34.926Z,2036
2017-05-13T17:32:35.641Z,1944
2017-05-13T17:33:36.357Z,1856
2017-05-13T17:34:37.079Z,1772
2017-05-13T17:35:37.995Z,1660
2017-05-13T17:36:38.719Z,1560
2017-05-13T17:37:39.434Z,1528
2017-05-13T17:38:40.159Z,1412
2017-05-13T17:39:40.883Z,1496
2017-05-13T17:40:41.798Z,1740
2017-05-13T17:41:42.512Z,1704
2017-05-13T17:42:43.224Z,1596
2017-05-13T17:43:43.937Z,1612
2017-05-13T17:44:44.649Z,1588
2017-05-13T17:45:45.614Z,1556
2017-05-13T17:46:46.334Z,1556
2017-05-13T17:47:47.045Z,1536
2017-05-13T17:48:47.844Z,1408
2017-05-13T17:49:48.551Z,1152
2017-05-13T17:50:49.512Z,1100
2017-05-13T17:51:50.236Z,1060
2017-05-13T17:52:50.943Z,1052
2017-05-13T17:53:51.655Z,1052
2017-05-13T17:54:52.371Z,1064
2017-05-13T17:55:53.338Z,1104
2017-05-13T17:56:54.053Z,1188
2017-05-13T17:57:54.761Z,1196
2017-05-13T17:58:55.478Z,1084
2017-05-13T17:59:56.186Z,916
2017-05-13T18:00:57.149Z,844
2017-05-13T18:01:57.874Z,784
2017-05-13T18:02:58.590Z,732
2017-05-13T18:03:59.302Z,712
2017-05-13T18:05:00.013Z,696
2017-05-13T18:06:00.928Z,652
2017-05-13T18:07:01.648Z,628
2017-05-13T18:08:02.360Z,616
2017-05-13T18:09:03.069Z,600
2017-05-13T18:10:03.778Z,584
2017-05-13T18:11:04.738Z,576
2017-05-13T18:12:05.445Z,552
2017-05-13T18:13:06.158Z,528
2017-05-13T18:14:06.871Z,516
2017-05-13T18:15:07.580Z,500
2017-05-13T18:16:08.543Z,456
2017-05-13T18:17:09.255Z,412
2017-05-13T18:18:09.969Z,384
2017-05-13T18:19:10.679Z,368
2017-05-13T18:20:11.390Z,352
2017-05-13T18:21:12.305Z,328
2017-05-13T18:22:13.017Z,300
2017-05-13T18:23:13.736Z,280
2017-05-13T18:24:14.461Z,264
2017-05-13T18:25:15.174Z,252
2017-05-13T18:26:16.085Z,240
2017-05-13T18:27:16.800Z,236
2017-05-13T18:28:17.509Z,232
2017-05-13T18:29:18.221Z,232
2017-05-13T18:30:18.930Z,228
2017-05-13T18:31:19.888Z,228
2017-05-13T18:32:20.597Z,224
2017-05-13T18:33:21.314Z,220
2017-05-13T18:34:22.020Z,216
2017-05-13T18:35:22.731Z,208
2017-05-13T18:36:23.691Z,204
2017-05-13T18:37:24.401Z,200
2017-05-13T18:38:25.109Z,196
2017-05-13T18:39:25.818Z,192
2017-05-13T18:40:26.528Z,180
2017-05-13T18:41:27.435Z,168
2017-05-13T18:42:28.142Z,160
2017-05-13T18:43:28.854Z,144
2017-05-13T18:44:29.563Z,140
2017-05-13T18:45:30.272Z,128
2017-05-13T18:46:31.231Z,120
2017-05-13T18:47:31.940Z,108
2017-05-13T18:48:32.656Z,104
2017-05-13T18:49:33.361Z,96
2017-05-13T18:50:34.074Z,84
2017-05-13T18:51:35.036Z,80
2017-05-13T18:52:35.742Z,72
2017-05-13T18:53:36.462Z,64
2017-05-13T18:54:37.170Z,56
2017-05-13T18:55:37.884Z,52
2017-05-13T18:56:38.840Z,48
2017-05-13T18:57:39.553Z,40
2017-05-13T18:58:40.261Z,36
2017-05-13T18:59:40.965Z,32
2017-05-13T19:00:41.672Z,32
2017-05-13T19:01:42.628Z,28
2017-05-13T19:02:43.331Z,24
2017-05-13T19:03:44.040Z,20
2017-05-13T19:04:44.742Z,16
2017-05-13T19:05:45.453Z,16
2017-05-13T19:06:46.415Z,12
2017-05-13T19:07:47.158Z,12
2017-05-13T19:08:47.868Z,12
2017-05-13T19:09:48.574Z,8
2017-05-13T19:10:49.287Z,8
2017-05-13T19:11:50.244Z,8
2017-05-13T19:12:50.960Z,4
2017-05-13T19:13:51.665Z,4
2017-05-13T19:14:52.370Z,8
2017-05-13T19:15:53.084Z,4
2017-05-13T19:16:54.040Z,0
2017-05-13T19:17:54.752Z,4
2017-05-13T19:18:55.469Z,4
2017-05-13T19:19:56.187Z,0
2017-05-13T19:20:56.898Z,0
2017-05-13T19:21:57.851Z,4
2017-05-13T19:22:58.554Z,4
2017-05-13T19:23:59.259Z,0
2017-05-13T19:24:59.966Z,0
2017-05-13T19:26:00.672Z,0
2017-05-13T19:27:01.630Z,0
2017-05-13T19:28:02.339Z,0
2017-05-13T19:29:03.042Z,0
2017-05-13T19:30:03.754Z,0
2017-05-13T19:31:04.457Z,0
2017-05-13T19:32:05.462Z,0
2017-05-13T19:33:06.167Z,0
2017-05-13T19:34:06.874Z,0
2017-05-13T19:35:07.590Z,0
2017-05-13T19:36:08.296Z,0
2017-05-13T19:37:09.202Z,0
2017-05-13T19:38:09.904Z,0
2017-05-13T19:39:10.626Z,0
2017-05-13T19:40:11.329Z,0
2017-05-13T19:41:12.035Z,0
2017-05-13T19:42:12.988Z,0
2017-05-13T19:43:13.692Z,0
2017-05-13T19:44:14.402Z,0
2017-05-13T19:45:15.107Z,4
2017-05-13T19:46:15.809Z,0
2017-05-13T19:47:16.717Z,0
2017-05-13T19:48:17.422Z,0
2017-05-13T19:49:18.129Z,0
2017-05-13T19:50:18.833Z,0
2017-05-13T19:51:19.556Z,0
2017-05-13T19:52:20.465Z,0
2017-05-13T19:53:21.171Z,0
2017-05-13T19:54:21.886Z,0
2017-05-13T19:55:22.603Z,0
2017-05-13T19:56:23.311Z,0
2017-05-13T19:57:24.275Z,0
2017-05-13T19:58:24.978Z,0
2017-05-13T19:59:25.680Z,0
2017-05-13T20:00:26.386Z,0
2017-05-13T20:01:27.088Z,0
2017-05-13T20:02:28.044Z,0
2017-05-13T20:03:28.751Z,0
2017-05-13T20:04:29.458Z,0
2017-05-13T20:05:30.173Z,0
2017-05-13T20:06:30.882Z,0
2017-05-13T20:07:31.840Z,0
2017-05-13T20:08:32.544Z,0
2017-05-13T20:09:33.245Z,0
2017-05-13T20:10:33.948Z,0
2017-05-13T20:11:34.655Z,0
2017-05-13T20:12:35.612Z,0
2017-05-13T20:13:36.320Z,0
2017-05-13T20:14:37.030Z,0
2017-05-13T20:15:37.739Z,0
2017-05-13T20:16:38.442Z,0
2017-05-13T20:17:39.395Z,0
2017-05-13T20:18:40.097Z,0
2017-05-13T20:19:40.805Z,0
2017-05-13T20:20:41.517Z,0
2017-05-13T20:21:42.227Z,0
2017-05-13T20:22:43.180Z,0
2017-05-13T20:23:43.889Z,0
2017-05-13T20:24:44.594Z,0
2017-05-13T20:25:45.296Z,0
2017-05-13T20:26:46.001Z,0
2017-05-13T20:27:46.968Z,0
2017-05-13T20:28:47.676Z,0
2017-05-13T20:29:48.381Z,0
2017-05-13T20:30:49.097Z,0
2017-05-13T20:31:49.808Z,0
2017-05-13T20:32:50.762Z,0
2017-05-13T20:33:51.465Z,0
2017-05-13T20:34:52.172Z,0
2017-05-13T20:35:52.887Z,0
2017-05-13T20:36:53.588Z,0
2017-05-13T20:37:54.492Z,0
2017-05-13T20:38:55.194Z,0
2017-05-13T20:39:55.907Z,0
2017-05-13T20:40:56.609Z,0
2017-05-13T20:41:57.310Z,0
2017-05-13T20:42:58.267Z,0
2017-05-13T20:43:58.967Z,0
2017-05-13T20:44:59.668Z,0
2017-05-13T20:46:00.386Z,0
2017-05-13T20:47:01.089Z,0
2017-05-13T20:48:01.994Z,0
2017-05-13T20:49:02.698Z,0
2017-05-13T20:50:03.416Z,0
2017-05-13T20:51:04.117Z,0
2017-05-13T20:52:04.837Z,0
2017-05-13T20:53:05.752Z,0
2017-05-13T20:54:06.468Z,0
2017-05-13T20:55:07.172Z,0
2017-05-13T20:56:07.875Z,0
2017-05-13T20:57:08.576Z,0
2017-05-13T20:58:09.527Z,0
2017-05-13T20:59:10.227Z,0
2017-05-13T21:00:10.941Z,0
2017-05-13T21:01:11.651Z,0
2017-05-13T21:02:12.361Z,0
2017-05-13T21:03:13.360Z,0
2017-05-13T21:04:14.075Z,0
2017-05-13T21:05:14.772Z,0
2017-05-13T21:06:15.472Z,0
2017-05-13T21:07:16.174Z,0
2017-05-13T21:08:17.082Z,0
2017-05-13T21:09:17.786Z,0
2017-05-13T21:10:18.487Z,0
2017-05-13T21:11:19.189Z,0
2017-05-13T21:12:19.889Z,0
2017-05-13T21:13:20.843Z,0
2017-05-13T21:14:21.550Z,0
2017-05-13T21:15:22.253Z,0
2017-05-13T21:16:22.952Z,0
2017-05-13T21:17:23.670Z,0
2017-05-13T21:18:24.575Z,0
2017-05-13T21:19:25.284Z,0
2017-05-13T21:20:25.996Z,0
2017-05-13T21:21:26.696Z,0
2017-05-13T21:22:27.411Z,0
2017-05-13T21:23:28.321Z,0
2017-05-13T21:24:29.022Z,0
2017-05-13T21:25:29.725Z,0
2017-05-13T21:26:30.426Z,0
2017-05-13T21:27:31.129Z,0
2017-05-13T21:28:32.090Z,0
2017-05-13T21:29:32.796Z,0
2017-05-13T21:30:33.505Z,0
2017-05-13T21:31:34.212Z,0
2017-05-13T21:32:34.923Z,0
2017-05-13T21:33:35.881Z,0
2017-05-13T21:34:36.583Z,0
2017-05-13T21:35:37.295Z,0
2017-05-13T21:36:37.998Z,0
2017-05-13T21:37:38.697Z,0
2017-05-13T21:38:39.609Z,0
2017-05-13T21:39:40.317Z,0
2017-05-13T21:40:41.022Z,0
2017-05-13T21:41:41.724Z,0
2017-05-13T21:42:42.428Z,0
2017-05-13T21:43:43.330Z,0
2017-05-13T21:44:44.029Z,0
2017-05-13T21:45:44.731Z,0
2017-05-13T21:46:45.432Z,0
2017-05-13T21:47:46.137Z,0
2017-05-13T21:48:47.091Z,0
2017-05-13T21:49:47.803Z,0
2017-05-13T21:50:48.505Z,0
2017-05-13T21:51:49.208Z,0
2017-05-13T21:52:49.910Z,0
2017-05-13T21:53:50.860Z,0
2017-05-13T21:54:51.560Z,0
2017-05-13T21:55:52.262Z,0
2017-05-13T21:56:52.965Z,0
2017-05-13T21:57:53.666Z,0
2017-05-13T21:58:54.572Z,0
2017-05-13T21:59:55.277Z,0
2017-05-13T22:00:55.984Z,0
2017-05-13T22:01:56.692Z,0
2017-05-13T22:02:57.393Z,0
2017-05-13T22:03:58.346Z,0
2017-05-13T22:04:59.048Z,0
2017-05-13T22:05:59.749Z,0
2017-05-13T22:07:00.460Z,0
2017-05-13T22:08:01.164Z,0
2017-05-13T22:09:02.132Z,0
2017-05-13T22:10:02.836Z,0
2017-05-13T22:11:03.540Z,0
2017-05-13T22:12:04.259Z,0
2017-05-13T22:13:04.964Z,0
2017-05-13T22:14:05.872Z,0
2017-05-13T22:15:06.574Z,0
2017-05-13T22:16:07.277Z,0
2017-05-13T22:17:07.977Z,0
2017-05-13T22:18:08.681Z,0
2017-05-13T22:19:09.635Z,0
2017-05-13T22:20:10.337Z,0
2017-05-13T22:21:11.047Z,0
2017-05-13T22:22:11.747Z,0
2017-05-13T22:23:12.451Z,0
2017-05-13T22:24:13.351Z,0
2017-05-13T22:25:14.053Z,0
2017-05-13T22:26:14.756Z,0
2017-05-13T22:27:15.459Z,0
2017-05-13T22:28:16.168Z,0
2017-05-13T22:29:17.127Z,0
2017-05-13T22:30:17.831Z,0
2017-05-13T22:31:18.535Z,0
2017-05-13T22:32:19.238Z,0
2017-05-13T22:33:19.958Z,0
2017-05-13T22:34:20.860Z,0
2017-05-13T22:35:21.562Z,0
2017-05-13T22:36:22.268Z,0
2017-05-13T22:37:22.975Z,0
2017-05-13T22:38:23.678Z,0
2017-05-13T22:39:24.629Z,0
2017-05-13T22:40:25.341Z,0
2017-05-13T22:41:26.043Z,0
2017-05-13T22:42:26.748Z,0
2017-05-13T22:43:27.449Z,0
2017-05-13T22:44:28.402Z,0
2017-05-13T22:45:29.107Z,0
2017-05-13T22:46:29.811Z,0
2017-05-13T22:47:30.513Z,0
2017-05-13T22:48:31.219Z,0
2017-05-13T22:49:32.121Z,0
2017-05-13T22:50:32.832Z,0
2017-05-13T22:51:33.534Z,0
2017-05-13T22:52:34.237Z,0
2017-05-13T22:53:34.940Z,0
2017-05-13T22:54:35.889Z,0
2017-05-13T22:55:36.591Z,0
2017-05-13T22:56:37.294Z,0
2017-05-13T22:57:37.996Z,0
2017-05-13T22:58:38.708Z,0
2017-05-13T22:59:39.611Z,0
2017-05-13T23:00:40.311Z,0
2017-05-13T23:01:41.027Z,0
2017-05-13T23:02:41.736Z,0
2017-05-13T23:03:42.437Z,0
2017-05-13T23:04:43.399Z,0
2017-05-13T23:05:44.107Z,0
2017-05-13T23:06:44.808Z,0
2017-05-13T23:07:45.509Z,0
2017-05-13T23:08:46.214Z,0
2017-05-13T23:09:47.166Z,0
2017-05-13T23:10:47.866Z,0
2017-05-13T23:11:48.569Z,0
2017-05-13T23:12:49.270Z,0
2017-05-13T23:13:49.973Z,0
2017-05-13T23:14:50.930Z,0
2017-05-13T23:15:51.634Z,0
2017-05-13T23:16:52.337Z,0
2017-05-13T23:17:53.038Z,0
2017-05-13T23:18:53.739Z,0
2017-05-13T23:19:54.641Z,0
2017-05-13T23:20:55.341Z,0
2017-05-13T23:21:56.042Z,0
2017-05-13T23:22:56.748Z,0
2017-05-13T23:23:57.453Z,0
2017-05-13T23:24:58.407Z,0
2017-05-13T23:25:59.114Z,0
2017-05-13T23:26:59.814Z,0
2017-05-13T23:28:00.517Z,0
2017-05-13T23:29:01.218Z,0
2017-05-13T23:30:02.126Z,0
2017-05-13T23:31:02.824Z,0
2017-05-13T23:32:03.527Z,0
2017-05-13T23:33:04.229Z,0
2017-05-13T23:34:04.931Z,0
2017-05-13T23:35:05.888Z,0
2017-05-13T23:36:06.591Z,0
2017-05-13T23:37:07.295Z,0
2017-05-13T23:38:07.996Z,0
2017-05-13T23:39:08.700Z,0
2017-05-13T23:40:09.652Z,0
2017-05-13T23:41:10.362Z,0
2017-05-13T23:42:11.063Z,0
2017-05-13T23:43:11.766Z,0
2017-05-13T23:44:12.467Z,0
2017-05-13T23:45:13.421Z,0
2017-05-13T23:46:14.122Z,0
2017-05-13T23:47:14.824Z,0
2017-05-13T23:48:15.526Z,0
2017-05-13T23:49:16.229Z,0
2017-05-13T23:50:17.182Z,0
2017-05-13T23:51:17.884Z,0
2017-05-13T23:52:18.589Z,0
2017-05-13T23:53:19.291Z,0
2017-05-13T23:54:19.990Z,0
2017-05-13T23:55:20.938Z,0
2017-05-13T23:56:21.651Z,0
2017-05-13T23:57:22.351Z,0
2017-05-13T23:58:23.053Z,0
2017-05-13T23:59:23.754Z,0
